Time,TemperatureF,DewpointF,PressureIn,WindDirection,WindDirectionDegrees,WindSpeedMPH,WindSpeedGustMPH,Humidity,HourlyPrecipIn,Conditions,Clouds,dailyrainin,SoftwareType,DateUTC
2013-08-06 00:00:00,67.0,62.3,29.83,WNW,292,0.0,2.0,85,0.00,,,0.00,Weather View 32 v70,2013-08-06 07:00:00,
2013-08-06 00:30:00,67.0,62.3,29.83,WNW,292,0.0,2.0,85,0.00,,,0.00,Weather View 32 v70,2013-08-06 07:30:00,
2013-08-06 01:00:00,69.0,61.1,29.83,WNW,292,3.0,7.0,76,0.00,,,0.00,Weather View 32 v70,2013-08-06 08:00:00,
2013-08-06 01:30:00,66.0,61.3,29.83,WNW,292,0.0,7.0,85,0.00,,,0.00,Weather View 32 v70,2013-08-06 08:30:00,
2013-08-06 02:00:00,65.0,62.3,29.83,WNW,292,0.0,6.0,91,0.00,,,0.00,Weather View 32 v70,2013-08-06 09:00:00,
2013-08-06 02:30:00,63.0,61.2,29.82,WNW,292,0.0,5.0,94,0.00,,,0.00,Weather View 32 v70,2013-08-06 09:30:00,
2013-08-06 03:00:00,61.0,59.3,29.81,WNW,292,0.0,0.0,94,0.00,,,0.00,Weather View 32 v70,2013-08-06 10:00:00,
2013-08-06 03:30:00,60.0,57.0,29.80,WNW,292,0.0,0.0,90,0.00,,,0.00,Weather View 32 v70,2013-08-06 10:30:00,
2013-08-06 04:00:00,59.0,49.6,29.80,WNW,292,0.0,0.0,71,0.00,,,0.00,Weather View 32 v70,2013-08-06 11:00:00,
2013-08-06 04:30:00,58.0,30.4,29.80,WNW,292,0.0,0.0,35,0.00,,,0.00,Weather View 32 v70,2013-08-06 11:30:00,
2013-08-06 05:00:00,58.0,24.1,29.80,SSW,202,0.0,0.0,27,0.00,,,0.00,Weather View 32 v70,2013-08-06 12:00:00,
2013-08-06 05:30:00,58.0,18.2,29.81,SW,225,0.0,0.0,21,0.00,,,0.00,Weather View 32 v70,2013-08-06 12:30:00,
2013-08-06 06:00:00,58.0,34.4,29.82,WSW,247,0.0,0.0,41,0.00,,,0.00,Weather View 32 v70,2013-08-06 13:00:00,
2013-08-06 06:30:00,57.0,35.8,29.83,WSW,247,0.0,0.0,45,0.00,,,0.00,Weather View 32 v70,2013-08-06 13:30:00,
2013-08-06 07:00:00,61.0,25.8,29.86,ESE,112,0.0,0.0,26,0.00,,,0.00,Weather View 32 v70,2013-08-06 14:00:00,
2013-08-06 07:30:00,64.0,56.6,29.89,ESE,112,0.0,5.0,77,0.00,,,0.00,Weather View 32 v70,2013-08-06 14:30:00,
2013-08-06 08:00:00,66.0,63.3,29.91,South,180,2.0,6.0,91,0.00,,,0.00,Weather View 32 v70,2013-08-06 15:00:00,
2013-08-06 08:30:00,70.0,64.9,29.93,SE,135,3.0,6.0,84,0.00,,,0.00,Weather View 32 v70,2013-08-06 15:30:00,
2013-08-06 09:00:00,73.0,63.8,29.95,South,180,4.0,7.0,73,0.00,,,0.00,Weather View 32 v70,2013-08-06 16:00:00,
2013-08-06 09:30:00,77.0,62.5,29.96,SSE,157,1.0,9.0,61,0.00,,,0.00,Weather View 32 v70,2013-08-06 16:30:00,
2013-08-06 09:35:00,77.0,62.5,29.96,SSE,157,1.0,9.0,61,0.00,,,0.00,Weather View 32 v70,2013-08-06 16:35:00,
2013-08-06 10:00:00,78.0,62.0,29.97,SW,225,3.0,9.0,58,0.00,,,0.00,Weather View 32 v70,2013-08-06 17:00:00,
2013-08-06 10:30:00,80.0,60.2,29.98,ENE,67,6.0,10.0,51,0.00,,,0.00,Weather View 32 v70,2013-08-06 17:30:00,
2013-08-06 10:35:00,80.0,60.2,29.98,ENE,67,6.0,10.0,51,0.00,,,0.00,Weather View 32 v70,2013-08-06 17:35:00,
2013-08-06 11:00:00,82.0,60.3,29.98,South,180,7.0,10.0,48,0.00,,,0.00,Weather View 32 v70,2013-08-06 18:00:00,
2013-08-06 11:30:00,82.0,58.5,29.99,SSW,202,7.0,10.0,45,0.00,,,0.00,Weather View 32 v70,2013-08-06 18:30:00,
2013-08-06 11:36:00,82.0,58.5,29.99,SSW,202,7.0,10.0,45,0.00,,,0.00,Weather View 32 v70,2013-08-06 18:36:00,
2013-08-06 12:00:00,85.0,57.2,29.98,SSW,202,0.0,10.0,39,0.00,,,0.00,Weather View 32 v70,2013-08-06 19:00:00,
2013-08-06 12:30:00,87.0,55.9,29.98,West,270,0.0,9.0,35,0.00,,,0.00,Weather View 32 v70,2013-08-06 19:30:00,
2013-08-06 12:36:00,87.0,55.9,29.98,West,270,0.0,9.0,35,0.00,,,0.00,Weather View 32 v70,2013-08-06 19:36:00,
2013-08-06 13:00:00,88.0,56.0,29.98,SW,225,0.0,7.0,34,0.00,,,0.00,Weather View 32 v70,2013-08-06 20:00:00,
2013-08-06 13:30:00,89.0,57.7,29.97,SSW,202,0.0,4.0,35,0.00,,,0.00,Weather View 32 v70,2013-08-06 20:30:00,
2013-08-06 13:37:00,89.0,57.7,29.97,SSW,202,0.0,4.0,35,0.00,,,0.00,Weather View 32 v70,2013-08-06 20:37:00,
2013-08-06 14:00:00,89.0,56.1,29.97,WNW,292,0.0,8.0,33,0.00,,,0.00,Weather View 32 v70,2013-08-06 21:00:00,
2013-08-06 14:30:00,90.0,58.6,29.96,West,270,0.0,9.0,35,0.00,,,0.00,Weather View 32 v70,2013-08-06 21:30:00,
2013-08-06 14:38:00,90.0,58.6,29.96,West,270,0.0,9.0,35,0.00,,,0.00,Weather View 32 v70,2013-08-06 21:38:00,
2013-08-06 15:00:00,91.0,57.8,29.96,West,270,5.0,9.0,33,0.00,,,0.00,Weather View 32 v70,2013-08-06 22:00:00,
2013-08-06 15:30:00,92.0,55.1,29.95,WNW,292,0.0,8.0,29,0.00,,,0.00,Weather View 32 v70,2013-08-06 22:30:00,
2013-08-06 15:38:00,92.0,55.1,29.95,WNW,292,0.0,8.0,29,0.00,,,0.00,Weather View 32 v70,2013-08-06 22:38:00,
2013-08-06 16:00:00,92.0,53.1,29.95,West,270,3.0,9.0,27,0.00,,,0.00,Weather View 32 v70,2013-08-06 23:00:00,
2013-08-06 16:30:00,92.0,53.1,29.95,WNW,292,6.0,12.0,27,0.00,,,0.00,Weather View 32 v70,2013-08-06 23:30:00,
2013-08-06 16:39:00,92.0,53.1,29.95,WNW,292,6.0,12.0,27,0.00,,,0.00,Weather View 32 v70,2013-08-06 23:39:00,
2013-08-06 17:00:00,92.0,52.1,29.94,WNW,292,1.0,12.0,26,0.00,,,0.00,Weather View 32 v70,2013-08-07 00:00:00,
2013-08-06 17:30:00,91.0,53.3,29.93,WNW,292,7.0,10.0,28,0.00,,,0.00,Weather View 32 v70,2013-08-07 00:30:00,
2013-08-06 17:39:00,91.0,53.3,29.93,WNW,292,7.0,10.0,28,0.00,,,0.00,Weather View 32 v70,2013-08-07 00:39:00,
2013-08-06 18:00:00,90.0,53.4,29.92,NW,315,0.0,11.0,29,0.00,,,0.00,Weather View 32 v70,2013-08-07 01:00:00,
2013-08-06 18:30:00,90.0,51.4,29.91,WNW,292,2.0,11.0,27,0.00,,,0.00,Weather View 32 v70,2013-08-07 01:30:00,
2013-08-06 19:00:00,89.0,52.5,29.91,WNW,292,0.0,9.0,29,0.00,,,0.00,Weather View 32 v70,2013-08-07 02:00:00,
2013-08-06 19:30:00,87.0,55.9,29.91,WNW,292,5.0,8.0,35,0.00,,,0.00,Weather View 32 v70,2013-08-07 02:30:00,
2013-08-06 20:00:00,82.0,57.9,29.89,WNW,292,4.0,8.0,44,0.00,,,0.00,Weather View 32 v70,2013-08-07 03:00:00,
2013-08-06 20:30:00,79.0,55.2,29.89,West,270,1.0,9.0,44,0.00,,,0.00,Weather View 32 v70,2013-08-07 03:30:00,
2013-08-06 21:00:00,77.0,55.2,29.89,WSW,247,6.0,9.0,47,0.00,,,0.00,Weather View 32 v70,2013-08-07 04:00:00,
2013-08-06 21:30:00,75.0,55.0,29.89,WNW,292,0.0,9.0,50,0.00,,,0.00,Weather View 32 v70,2013-08-07 04:30:00,
2013-08-06 22:00:00,74.0,57.3,29.89,WNW,292,3.0,9.0,56,0.00,,,0.00,Weather View 32 v70,2013-08-07 05:00:00,
2013-08-06 22:30:00,73.0,57.3,29.90,WNW,292,3.0,9.0,58,0.00,,,0.00,Weather View 32 v70,2013-08-07 05:30:00,
2013-08-06 23:00:00,71.0,57.7,29.90,NW,315,0.0,7.0,63,0.00,,,0.00,Weather View 32 v70,2013-08-07 06:00:00,
2013-08-06 23:30:00,70.0,60.1,29.90,WNW,292,0.0,7.0,71,0.00,,,0.00,Weather View 32 v70,2013-08-07 06:30:00,